Time;durP1;ratioP1;P1;durP2;ratioP2;P2;SDS_P1;SDS_P2;PMS_P1;PMS_P2;Temp;Humidity;BMP_temperature;BMP_pressure;BME280_temperature;BME280_humidity;BME280_pressure;Samples;Min_cycle;Max_cycle;Signal;HPM_P1;HPM_P2
2023/07/27 00:00:00;;;;;;;2.50;1.85;;;20.30;79.40;;;;;;5011672;28;20463;-33
2023/07/27 00:02:27;;;;;;;2.13;1.73;;;;;;;;;;5011839;28;20133;-37
2023/07/27 00:04:54;;;;;;;2.83;1.80;;;19.90;79.60;;;;;;5011422;28;20110;-33
2023/07/27 00:07:21;;;;;;;2.53;1.83;;;20.50;80.40;;;;;;5011815;28;20088;-33
2023/07/27 00:09:47;;;;;;;1.80;1.58;;;20.80;71.80;;;;;;5028785;28;20050;-36
2023/07/27 00:12:14;;;;;;;2.47;1.70;;;20.30;80.30;;;;;;5031103;28;20124;-35
2023/07/27 00:14:42;;;;;;;3.47;2.00;;;20.60;75.20;;;;;;5031545;28;20141;-34
2023/07/27 00:17:09;;;;;;;1.92;1.60;;;;;;;;;;5031399;28;20132;-33
2023/07/27 00:19:36;;;;;;;2.75;2.05;;;20.20;79.60;;;;;;5031184;28;20132;-33
2023/07/27 00:22:02;;;;;;;3.40;1.75;;;21.20;80.80;;;;;;5030544;28;20120;-33
2023/07/27 00:24:29;;;;;;;2.55;1.98;;;19.30;67.00;;;;;;5030989;28;20540;-34
2023/07/27 00:26:56;;;;;;;2.60;1.85;;;20.00;66.40;;;;;;5031174;28;20052;-35
2023/07/27 00:29:23;;;;;;;3.10;1.98;;;20.00;79.40;;;;;;5031418;28;20088;-34
2023/07/27 00:31:51;;;;;;;2.10;1.80;;;20.30;63.50;;;;;;5031118;28;20084;-37
2023/07/27 00:34:18;;;;;;;2.53;1.80;;;20.10;71.20;;;;;;5030719;28;20502;-33
2023/07/27 00:36:45;;;;;;;2.08;1.65;;;20.00;80.20;;;;;;5030039;28;20056;-34
2023/07/27 00:39:12;;;;;;;2.30;1.50;;;20.20;80.30;;;;;;5030946;28;20156;-32
2023/07/27 00:41:40;;;;;;;1.90;1.58;;;19.90;80.10;;;;;;5030771;28;20064;-34
2023/07/27 00:44:07;;;;;;;2.17;1.60;;;19.60;70.10;;;;;;5030744;28;20046;-34
2023/07/27 00:46:35;;;;;;;2.45;1.80;;;20.50;79.70;;;;;;5031203;28;20053;-33
2023/07/27 00:49:03;;;;;;;2.67;1.80;;;20.30;63.50;;;;;;5030125;28;20053;-35
2023/07/27 00:51:30;;;;;;;2.10;1.70;;;;;;;;;;5030778;28;20145;-36
2023/07/27 00:53:57;;;;;;;3.33;1.95;;;20.40;80.40;;;;;;5030382;28;20041;-37
2023/07/27 00:56:24;;;;;;;2.05;1.70;;;20.20;79.60;;;;;;5030573;28;20474;-34
2023/07/27 00:58:51;;;;;;;2.40;1.80;;;;;;;;;;5030872;28;20132;-35
2023/07/27 01:01:18;;;;;;;2.30;1.80;;;;;;;;;;5030740;28;20050;-32
2023/07/27 01:03:45;;;;;;;2.80;1.83;;;;;;;;;;5021593;28;20050;-35
2023/07/27 01:06:13;;;;;;;2.17;1.80;;;20.30;79.70;;;;;;5024339;28;20132;-34
2023/07/27 01:08:40;;;;;;;3.67;1.98;;;20.60;80.20;;;;;;5030156;28;20136;-33
2023/07/27 01:11:09;;;;;;;3.05;1.90;;;20.40;79.70;;;;;;5025331;28;20140;-34
2023/07/27 01:13:40;;;;;;;2.85;1.80;;;20.20;80.50;;;;;;5010838;28;20057;-33
2023/07/27 01:16:11;;;;;;;2.15;1.77;;;20.30;63.60;;;;;;5010711;28;20060;-37
2023/07/27 01:18:41;;;;;;;2.40;1.85;;;20.20;63.60;;;;;;5028323;28;20045;-33
2023/07/27 01:21:11;;;;;;;2.58;1.95;;;20.10;80.10;;;;;;5030333;28;20046;-36
2023/07/27 01:24:07;;;;;;;2.30;1.98;;;20.90;80.00;;;;;;5029888;28;20050;-34
2023/07/27 01:26:46;;;;;;;2.42;1.77;;;20.40;80.70;;;;;;5030436;28;20137;-32
2023/07/27 01:29:20;;;;;;;2.45;1.75;;;20.20;63.70;;;;;;5030128;28;20137;-36
2023/07/27 01:31:48;;;;;;;2.55;1.98;;;19.90;77.90;;;;;;5016991;28;20050;-34
2023/07/27 01:34:16;;;;;;;3.05;1.90;;;20.80;80.10;;;;;;5011517;28;20463;-34
2023/07/27 01:36:43;;;;;;;2.58;1.67;;;19.70;67.50;;;;;;5029756;28;20132;-32
2023/07/27 01:39:10;;;;;;;3.90;2.13;;;20.40;68.40;;;;;;5029802;28;20156;-36
2023/07/27 01:41:41;;;;;;;2.70;1.70;;;19.30;68.40;;;;;;5030080;28;20129;-36
2023/07/27 01:44:09;;;;;;;2.50;1.80;;;;;;;;;;5029317;28;20041;-38
2023/07/27 01:46:36;;;;;;;2.58;1.95;;;;;;;;;;5029541;28;20052;-37
2023/07/27 01:49:04;;;;;;;2.28;1.95;;;20.20;63.70;;;;;;5010538;28;20125;-36
2023/07/27 01:51:31;;;;;;;2.70;1.88;;;19.20;72.20;;;;;;5010088;28;20577;-34
2023/07/27 01:53:58;;;;;;;2.72;1.85;;;;;;;;;;5009769;28;20144;-35
2023/07/27 01:56:25;;;;;;;2.53;1.90;;;20.10;80.60;;;;;;5009967;28;20049;-33
2023/07/27 01:58:52;;;;;;;2.45;1.98;;;20.20;80.60;;;;;;5010022;28;20072;-32
2023/07/27 02:01:19;;;;;;;2.80;2.03;;;;;;;;;;5014264;28;20053;-34
2023/07/27 02:03:46;;;;;;;2.45;1.92;;;19.90;79.70;;;;;;5028670;28;20486;-33
2023/07/27 02:06:14;;;;;;;2.42;1.70;;;20.20;63.70;;;;;;5029316;28;20128;-36
2023/07/27 02:08:41;;;;;;;2.22;1.90;;;;;;;;;;5029684;28;20053;-37
2023/07/27 02:11:08;;;;;;;2.03;1.73;;;20.60;80.00;;;;;;5029308;28;20056;-35
2023/07/27 02:13:43;;;;;;;2.25;1.80;;;19.70;79.90;;;;;;5029463;28;20046;-37
2023/07/27 02:16:13;;;;;;;2.53;1.90;;;20.30;80.70;;;;;;5029582;28;20573;-33
2023/07/27 02:18:40;;;;;;;2.47;1.92;;;19.70;80.40;;;;;;5029192;28;20054;-33
2023/07/27 02:21:06;;;;;;;2.63;1.70;;;20.20;63.80;;;;;;5027647;28;20527;-33
2023/07/27 02:23:34;;;;;;;2.30;1.80;;;19.80;63.90;;;;;;5028933;28;20477;-34
2023/07/27 02:26:02;;;;;;;2.80;1.83;;;;;;;;;;5029507;28;20052;-35
2023/07/27 02:28:28;;;;;;;2.40;1.80;;;19.90;79.90;;;;;;5029145;28;20045;-33
2023/07/27 02:30:56;;;;;;;2.53;2.00;;;;;;;;;;5029231;28;20128;-36
2023/07/27 02:33:23;;;;;;;2.45;1.98;;;;;;;;;;5029087;28;20122;-34
2023/07/27 02:35:50;;;;;;;2.50;1.90;;;;;;;;;;5023822;28;20048;-41
2023/07/27 02:38:17;;;;;;;2.53;1.90;;;20.40;79.90;;;;;;5028946;28;20049;-34
2023/07/27 02:40:45;;;;;;;3.55;2.05;;;20.70;72.80;;;;;;5029137;28;20525;-34
2023/07/27 02:43:12;;;;;;;4.07;2.25;;;;;;;;;;5029071;28;20049;-35
2023/07/27 02:45:39;;;;;;;2.33;1.80;;;20.20;80.30;;;;;;5013312;28;20133;-33
2023/07/27 02:48:06;;;;;;;2.80;1.90;;;20.10;65.80;;;;;;5009371;28;20129;-34
2023/07/27 02:50:33;;;;;;;1.92;1.67;;;;;;;;;;5008916;28;20479;-35
2023/07/27 02:53:00;;;;;;;2.42;1.90;;;;;;;;;;5028419;28;20073;-35
2023/07/27 02:55:27;;;;;;;3.10;2.00;;;20.00;80.20;;;;;;5029110;28;20125;-34
2023/07/27 02:57:55;;;;;;;2.70;1.95;;;20.20;80.80;;;;;;5029026;28;20140;-36
2023/07/27 03:00:21;;;;;;;2.00;1.77;;;20.20;80.40;;;;;;5028950;28;20226;-33
2023/07/27 03:02:49;;;;;;;2.40;1.95;;;;;;;;;;5028705;28;20045;-37
2023/07/27 03:05:16;;;;;;;2.65;1.90;;;;;;;;;;5028468;28;20050;-33
2023/07/27 03:07:43;;;;;;;2.35;1.80;;;;;;;;;;5028899;28;20132;-36
2023/07/27 03:10:10;;;;;;;2.90;1.88;;;19.80;79.70;;;;;;5028947;28;20052;-33
2023/07/27 03:12:37;;;;;;;2.50;1.85;;;;;;;;;;5028606;28;20084;-35
2023/07/27 03:15:06;;;;;;;2.33;1.85;;;20.10;63.70;;;;;;5028784;28;20132;-33
2023/07/27 03:17:33;;;;;;;2.10;1.80;;;19.70;70.90;;;;;;5028399;28;20132;-32
2023/07/27 03:20:00;;;;;;;2.47;1.85;;;20.50;80.10;;;;;;5028590;28;20128;-33
2023/07/27 03:22:26;;;;;;;2.35;1.90;;;19.00;79.40;;;;;;5028539;28;20053;-34
2023/07/27 03:24:53;;;;;;;2.55;1.88;;;;;;;;;;5028748;28;20053;-36
2023/07/27 03:27:20;;;;;;;2.50;2.03;;;;;;;;;;5028324;28;20081;-35
2023/07/27 03:29:47;;;;;;;2.58;1.80;;;;;;;;;;5028612;28;20136;-36
2023/07/27 03:32:15;;;;;;;3.97;1.95;;;20.90;80.30;;;;;;5028500;28;20136;-33
2023/07/27 03:34:42;;;;;;;2.47;1.90;;;19.30;79.90;;;;;;5031871;28;20120;-32
2023/07/27 03:37:09;;;;;;;2.47;1.90;;;;;;;;;;5031509;28;20130;-36
2023/07/27 03:39:36;;;;;;;1.98;1.75;;;19.00;79.40;;;;;;5031860;28;20050;-35
2023/07/27 03:42:03;;;;;;;2.28;1.90;;;19.90;80.70;;;;;;5031970;28;20128;-32
2023/07/27 03:44:30;;;;;;;2.03;1.83;;;;;;;;;;5031646;28;20050;-37
2023/07/27 03:46:56;;;;;;;2.97;2.00;;;20.10;80.30;;;;;;5031762;28;20057;-32
2023/07/27 03:49:25;;;;;;;3.40;1.73;;;19.50;80.50;;;;;;5031799;28;20132;-33
2023/07/27 03:51:51;;;;;;;2.38;1.90;;;20.10;76.90;;;;;;5031794;28;20049;-33
2023/07/27 03:54:18;;;;;;;2.40;1.80;;;21.00;69.00;;;;;;5031591;28;20124;-36
2023/07/27 03:56:45;;;;;;;2.30;1.80;;;19.60;79.80;;;;;;5027131;28;20083;-34
2023/07/27 03:59:11;;;;;;;3.92;2.08;;;18.90;70.00;;;;;;5019119;28;20056;-33
2023/07/27 04:01:38;;;;;;;2.63;1.65;;;20.10;68.00;;;;;;5011729;28;20495;-35
2023/07/27 04:04:05;;;;;;;2.22;1.83;;;;;;;;;;5011756;28;20129;-35
2023/07/27 04:06:33;;;;;;;2.25;1.92;;;20.00;63.80;;;;;;5012339;28;20050;-37
2023/07/27 04:09:00;;;;;;;2.35;1.90;;;;;;;;;;5031222;28;20053;-38
2023/07/27 04:11:27;;;;;;;2.35;1.95;;;20.10;80.50;;;;;;5031416;28;20055;-32
2023/07/27 04:13:54;;;;;;;2.58;2.03;;;20.00;80.90;;;;;;5031272;28;20132;-34
2023/07/27 04:16:21;;;;;;;2.00;1.80;;;;;;;;;;5030995;28;20137;-35
2023/07/27 04:18:48;;;;;;;3.20;1.90;;;20.40;80.70;;;;;;5012550;28;20507;-33
2023/07/27 04:21:15;;;;;;;3.30;1.90;;;;;;;;;;5011667;28;20106;-32
2023/07/27 04:23:43;;;;;;;2.72;1.95;;;19.80;69.50;;;;;;5011189;28;20128;-32
2023/07/27 04:26:10;;;;;;;2.28;1.95;;;19.50;80.20;;;;;;5011383;28;20078;-33
2023/07/27 04:28:36;;;;;;;3.25;2.00;;;18.80;79.50;;;;;;5012413;28;20060;-34
2023/07/27 04:31:03;;;;;;;2.70;1.90;;;;;;;;;;5024023;28;20133;-35
2023/07/27 04:33:30;;;;;;;2.25;1.90;;;20.20;77.50;;;;;;5030733;28;20136;-33
2023/07/27 04:35:57;;;;;;;2.72;1.90;;;20.20;80.20;;;;;;5030072;28;20587;-33
2023/07/27 04:38:24;;;;;;;2.38;1.88;;;20.60;71.30;;;;;;5030835;28;20406;-40
2023/07/27 04:40:52;;;;;;;2.17;1.90;;;19.90;80.10;;;;;;5031100;28;20053;-40
2023/07/27 04:43:20;;;;;;;2.65;2.00;;;20.00;80.10;;;;;;5030676;28;20067;-40
2023/07/27 04:45:47;;;;;;;2.28;1.80;;;19.60;80.00;;;;;;5029457;28;20124;-41
2023/07/27 04:48:14;;;;;;;1.90;1.60;;;;;;;;;;5029839;28;20509;-37
2023/07/27 04:50:40;;;;;;;3.53;2.17;;;19.80;80.10;;;;;;5030549;28;20491;-39
2023/07/27 04:53:07;;;;;;;3.00;2.20;;;20.10;80.30;;;;;;5030654;28;20141;-40
2023/07/27 04:55:34;;;;;;;3.38;2.00;;;;;;;;;;5028707;28;20478;-36
2023/07/27 04:58:02;;;;;;;2.80;1.85;;;21.00;79.40;;;;;;5030626;28;20465;-40
2023/07/27 05:00:29;;;;;;;1.95;1.63;;;19.70;79.90;;;;;;5030812;28;20053;-40
2023/07/27 05:02:57;;;;;;;2.55;1.88;;;20.00;80.20;;;;;;5030348;28;20617;-39
2023/07/27 05:05:24;;;;;;;2.33;1.90;;;;;;;;;;5019788;28;20509;-36
2023/07/27 05:07:51;;;;;;;3.53;2.30;;;19.60;80.00;;;;;;5010722;28;20570;-39
2023/07/27 05:10:18;;;;;;;2.35;1.90;;;19.90;80.60;;;;;;5010763;28;20117;-40
2023/07/27 05:12:44;;;;;;;2.78;2.10;;;19.00;68.20;;;;;;5010513;28;20101;-38
2023/07/27 05:15:12;;;;;;;2.20;1.90;;;20.40;80.40;;;;;;5023139;28;20128;-40
2023/07/27 05:17:39;;;;;;;2.83;2.40;;;19.40;80.80;;;;;;5030531;28;20156;-40
2023/07/27 05:20:06;;;;;;;2.45;1.88;;;19.50;80.10;;;;;;5030623;28;20133;-39
2023/07/27 05:22:33;;;;;;;2.50;2.10;;;18.60;73.00;;;;;;5017536;28;20426;-38
2023/07/27 05:25:00;;;;;;;2.35;1.80;;;20.80;80.70;;;;;;5018955;28;20089;-40
2023/07/27 05:27:27;;;;;;;2.17;1.80;;;20.80;68.80;;;;;;5010868;28;20469;-37
2023/07/27 05:29:54;;;;;;;3.17;2.10;;;19.70;80.90;;;;;;5010737;28;20133;-37
2023/07/27 05:32:22;;;;;;;2.10;1.75;;;20.30;80.40;;;;;;5010544;28;20141;-39
2023/07/27 05:34:48;;;;;;;2.92;2.08;;;19.70;81.00;;;;;;5019435;28;20077;-39
2023/07/27 05:37:15;;;;;;;2.65;1.90;;;19.30;68.20;;;;;;5029436;28;20473;-38
2023/07/27 05:39:42;;;;;;;2.97;2.05;;;19.30;78.40;;;;;;5030115;28;20140;-38
2023/07/27 05:42:08;;;;;;;2.75;2.00;;;19.90;80.20;;;;;;5030132;28;20517;-40
2023/07/27 05:44:35;;;;;;;2.88;2.03;;;;;;;;;;5028563;28;20124;-37
2023/07/27 05:47:04;;;;;;;2.42;2.00;;;19.90;63.80;;;;;;5019227;28;20049;-39
2023/07/27 05:49:32;;;;;;;2.40;1.90;;;19.90;63.80;;;;;;5019779;28;20046;-35
2023/07/27 05:51:59;;;;;;;2.20;1.85;;;;;;;;;;5018924;28;20140;-36
2023/07/27 05:54:26;;;;;;;4.55;1.88;;;19.90;80.20;;;;;;5020418;28;20050;-40
2023/07/27 05:56:53;;;;;;;2.72;1.90;;;19.50;80.10;;;;;;5019039;28;20141;-39
2023/07/27 05:59:20;;;;;;;2.80;2.20;;;19.70;72.80;;;;;;5019309;28;20406;-41
2023/07/27 06:01:46;;;;;;;3.67;2.10;;;19.70;80.20;;;;;;5017632;28;20129;-40
2023/07/27 06:04:13;;;;;;;3.63;2.33;;;20.00;81.20;;;;;;5019512;28;20483;-40
2023/07/27 06:06:44;;;;;;;2.80;2.00;;;18.80;65.40;;;;;;5018304;28;20128;-39
2023/07/27 06:09:11;;;;;;;2.58;1.90;;;20.10;80.40;;;;;;5018625;28;20149;-41
2023/07/27 06:11:38;;;;;;;2.58;1.90;;;;;;;;;;5018171;28;20058;-37
2023/07/27 06:14:05;;;;;;;2.40;2.00;;;19.40;80.90;;;;;;5019457;28;20164;-41
2023/07/27 06:16:32;;;;;;;2.50;2.13;;;19.60;80.10;;;;;;5017981;28;20133;-40
2023/07/27 06:18:58;;;;;;;2.60;1.98;;;20.00;70.50;;;;;;5018849;28;20095;-37
2023/07/27 06:21:25;;;;;;;2.30;1.77;;;19.80;80.70;;;;;;5018701;28;20142;-41
2023/07/27 06:23:53;;;;;;;3.03;2.30;;;19.40;81.00;;;;;;5017564;28;20046;-41
2023/07/27 06:26:20;;;;;;;2.28;2.00;;;19.50;80.90;;;;;;5019297;28;20553;-40
2023/07/27 06:28:47;;;;;;;3.03;2.05;;;;;;;;;;5016714;28;20072;-41
2023/07/27 06:31:14;;;;;;;2.67;1.95;;;20.40;81.00;;;;;;5009619;28;20121;-41
2023/07/27 06:33:41;;;;;;;4.35;2.05;;;20.00;71.40;;;;;;5026546;28;20045;-37
2023/07/27 06:36:08;;;;;;;2.47;2.08;;;19.40;80.00;;;;;;5029110;28;20071;-40
2023/07/27 06:38:35;;;;;;;2.72;1.95;;;;;;;;;;5029370;28;20055;-40
2023/07/27 06:41:03;;;;;;;2.10;1.73;;;20.10;80.10;;;;;;5029244;28;20140;-41
2023/07/27 06:43:29;;;;;;;2.75;2.17;;;20.00;78.10;;;;;;5028387;28;20141;-40
2023/07/27 06:45:56;;;;;;;2.45;1.85;;;19.90;81.20;;;;;;5029143;28;20049;-39
2023/07/27 06:48:23;;;;;;;2.85;2.00;;;;;;;;;;5020064;28;20046;-41
2023/07/27 06:50:50;;;;;;;2.53;2.03;;;19.80;81.10;;;;;;5022165;28;20059;-40
2023/07/27 06:53:17;;;;;;;3.00;2.28;;;19.80;72.30;;;;;;5029233;28;20128;-40
2023/07/27 06:55:44;;;;;;;2.80;2.05;;;;;;;;;;5029152;28;20054;-39
2023/07/27 06:58:12;;;;;;;2.45;2.00;;;19.60;80.30;;;;;;5029076;28;20055;-40
2023/07/27 07:00:39;;;;;;;3.15;2.30;;;;;;;;;;5017567;28;20058;-38
2023/07/27 07:03:06;;;;;;;2.80;2.05;;;19.60;79.40;;;;;;5009281;28;20050;-40
2023/07/27 07:05:33;;;;;;;2.63;2.05;;;19.70;80.40;;;;;;5009397;28;20142;-40
2023/07/27 07:08:00;;;;;;;2.75;2.00;;;;;;;;;;5017485;28;20156;-37
2023/07/27 07:10:27;;;;;;;2.50;2.00;;;19.70;80.60;;;;;;5012136;28;20054;-39
2023/07/27 07:12:54;;;;;;;3.05;2.00;;;;;;;;;;5008977;28;20058;-38
2023/07/27 07:15:22;;;;;;;2.80;2.10;;;19.70;70.90;;;;;;5009210;28;20056;-40
2023/07/27 07:17:49;;;;;;;2.97;1.88;;;19.70;80.30;;;;;;5009151;28;20133;-41
2023/07/27 07:20:16;;;;;;;2.55;2.00;;;20.10;66.90;;;;;;5011956;28;20064;-38
2023/07/27 07:22:43;;;;;;;3.05;2.08;;;18.70;79.80;;;;;;5028787;28;20076;-39
2023/07/27 07:25:10;;;;;;;3.65;2.10;;;20.00;80.50;;;;;;5028853;28;20053;-41
2023/07/27 07:27:37;;;;;;;2.67;1.90;;;;;;;;;;5028681;28;20056;-37
2023/07/27 07:30:05;;;;;;;2.47;2.00;;;20.10;80.60;;;;;;5009621;28;20078;-40
2023/07/27 07:32:33;;;;;;;2.53;1.85;;;20.50;81.70;;;;;;5008932;28;20050;-39
2023/07/27 07:35:00;;;;;;;2.03;1.67;;;19.50;81.10;;;;;;5023111;28;20052;-40
2023/07/27 07:37:27;;;;;;;3.10;2.20;;;19.20;69.90;;;;;;5021693;28;20137;-39
2023/07/27 07:39:53;;;;;;;2.55;1.83;;;19.80;80.40;;;;;;5028255;28;20053;-41
2023/07/27 07:42:20;;;;;;;2.25;2.00;;;19.90;80.60;;;;;;5028223;28;20128;-41
2023/07/27 07:44:47;;;;;;;3.20;1.90;;;;;;;;;;5028561;28;20056;-37
2023/07/27 07:47:14;;;;;;;2.90;1.90;;;19.70;80.40;;;;;;5028645;28;20049;-41
2023/07/27 07:49:42;;;;;;;2.70;2.00;;;19.70;80.40;;;;;;5028597;28;20129;-40
2023/07/27 07:52:09;;;;;;;2.40;1.88;;;20.50;80.90;;;;;;5020006;28;20106;-41
2023/07/27 07:54:36;;;;;;;2.72;1.98;;;;;;;;;;5008628;28;20049;-36
2023/07/27 07:57:03;;;;;;;3.75;2.17;;;20.80;80.90;;;;;;5008598;28;20145;-40
2023/07/27 07:59:30;;;;;;;2.50;2.00;;;21.00;73.90;;;;;;5011004;28;20075;-37
2023/07/27 08:01:56;;;;;;;2.13;1.70;;;19.70;80.60;;;;;;5027776;28;20046;-40
2023/07/27 08:04:23;;;;;;;2.30;1.80;;;;;;;;;;5012569;28;20054;-37
2023/07/27 08:06:51;;;;;;;2.40;1.67;;;19.90;72.00;;;;;;5008530;28;20048;-40
2023/07/27 08:09:18;;;;;;;2.05;1.80;;;20.40;81.10;;;;;;5008461;28;20581;-40
2023/07/27 08:11:45;;;;;;;1.92;1.67;;;20.70;81.40;;;;;;5015309;28;20138;-41
2023/07/27 08:14:12;;;;;;;2.50;1.70;;;21.20;68.30;;;;;;5008360;28;20138;-37
2023/07/27 08:16:39;;;;;;;1.92;1.55;;;20.20;81.00;;;;;;5008506;28;20121;-41
2023/07/27 08:19:06;;;;;;;2.92;1.70;;;;;;;;;;5016829;28;20056;-40
2023/07/27 08:21:33;;;;;;;2.42;1.90;;;21.10;81.10;;;;;;5018926;28;20049;-39
2023/07/27 08:24:01;;;;;;;2.33;1.50;;;20.70;80.90;;;;;;5020486;28;20140;-38
2023/07/27 08:26:28;;;;;;;3.10;1.67;;;20.40;79.60;;;;;;5020819;28;20054;-41
2023/07/27 08:28:55;;;;;;;3.53;1.70;;;21.40;80.80;;;;;;5019234;28;20056;-39
2023/07/27 08:31:22;;;;;;;2.92;2.08;;;20.90;80.50;;;;;;5020349;28;20200;-40
2023/07/27 08:33:49;;;;;;;1.75;1.45;;;21.10;69.50;;;;;;5020258;28;20045;-36
2023/07/27 08:36:15;;;;;;;1.65;1.42;;;20.70;79.50;;;;;;5021561;28;20417;-40
2023/07/27 08:38:42;;;;;;;1.85;1.40;;;21.30;70.90;;;;;;5020021;28;20129;-40
2023/07/27 08:41:10;;;;;;;1.80;1.40;;;21.60;74.80;;;;;;5017863;28;20046;-39
2023/07/27 08:43:37;;;;;;;1.85;1.40;;;21.00;71.10;;;;;;5020647;28;20128;-40
2023/07/27 08:46:04;;;;;;;1.73;1.33;;;21.60;63.20;;;;;;5021171;28;20555;-37
2023/07/27 08:48:30;;;;;;;1.80;1.30;;;21.50;79.60;;;;;;5010137;28;20138;-41
2023/07/27 08:50:58;;;;;;;1.80;1.30;;;;;;;;;;5010739;28;20414;-37
2023/07/27 08:53:26;;;;;;;2.10;1.40;;;;;;;;;;5010349;28;20054;-38
2023/07/27 08:55:53;;;;;;;1.98;1.45;;;22.00;78.60;;;;;;5010629;28;20054;-41
2023/07/27 08:58:21;;;;;;;2.08;1.30;;;22.30;66.90;;;;;;5010230;28;20533;-38
2023/07/27 09:00:47;;;;;;;1.65;1.40;;;22.10;72.80;;;;;;5011693;28;20098;-40
2023/07/27 09:03:14;;;;;;;1.30;1.20;;;20.60;77.60;;;;;;5013957;28;20052;-40
2023/07/27 09:05:41;;;;;;;2.00;1.30;;;21.60;78.40;;;;;;5018743;28;20523;-41
2023/07/27 09:08:09;;;;;;;1.75;1.40;;;21.50;77.80;;;;;;5024532;28;20447;-39
2023/07/27 09:10:36;;;;;;;2.03;1.60;;;21.80;62.30;;;;;;5029370;28;20056;-36
2023/07/27 09:13:03;;;;;;;3.03;1.50;;;20.70;77.40;;;;;;5019034;28;20041;-41
2023/07/27 09:15:31;;;;;;;1.85;1.50;;;21.80;62.20;;;;;;5010259;28;20499;-38
2023/07/27 09:18:01;;;;;;;2.42;1.58;;;21.80;62.20;;;;;;5023155;28;20052;-36
2023/07/27 09:20:28;;;;;;;1.15;1.00;;;;;;;;;;5030302;28;20045;-36
2023/07/27 09:22:55;;;;;;;1.55;1.27;;;21.30;71.70;;;;;;5024143;28;20060;-40
2023/07/27 09:25:23;;;;;;;2.22;1.50;;;;;;;;;;5018187;28;20050;-38
2023/07/27 09:27:52;;;;;;;1.90;1.45;;;22.40;77.90;;;;;;5018350;28;20049;-40
2023/07/27 09:30:19;;;;;;;1.75;1.50;;;22.00;78.60;;;;;;5028024;28;20045;-40
2023/07/27 09:32:48;;;;;;;1.58;1.30;;;21.20;77.70;;;;;;5029416;28;20057;-40
2023/07/27 09:35:15;;;;;;;1.92;1.40;;;21.80;76.20;;;;;;5030511;28;20050;-39
2023/07/27 09:37:44;;;;;;;2.97;1.50;;;21.70;75.70;;;;;;5029581;28;20087;-40
2023/07/27 09:40:13;;;;;;;1.92;1.30;;;22.20;65.70;;;;;;5030264;28;20046;-38
2023/07/27 09:42:41;;;;;;;1.58;1.40;;;21.90;77.80;;;;;;5024399;28;20049;-41
2023/07/27 09:45:08;;;;;;;1.48;1.38;;;20.80;67.70;;;;;;5010602;28;20132;-41
2023/07/27 09:47:35;;;;;;;1.90;1.70;;;;;;;;;;5009935;28;20107;-39
2023/07/27 09:50:03;;;;;;;1.75;1.40;;;22.30;78.40;;;;;;5010561;28;20054;-40
2023/07/27 09:52:31;;;;;;;2.38;1.42;;;21.80;77.70;;;;;;5014632;28;20053;-40
2023/07/27 09:54:58;;;;;;;2.25;1.45;;;22.20;78.60;;;;;;5030033;28;20129;-40
2023/07/27 09:57:25;;;;;;;2.00;1.35;;;22.00;73.60;;;;;;5029892;28;20080;-40
2023/07/27 09:59:52;;;;;;;1.83;1.40;;;21.40;78.30;;;;;;5029776;28;20136;-41
2023/07/27 10:02:20;;;;;;;2.13;1.40;;;21.10;65.30;;;;;;5029481;28;20128;-40
2023/07/27 10:04:49;;;;;;;2.03;1.45;;;;;;;;;;5030087;28;20129;-40
2023/07/27 10:07:18;;;;;;;1.80;1.30;;;21.70;77.70;;;;;;5029938;28;20045;-41
2023/07/27 10:09:44;;;;;;;2.20;1.30;;;22.00;77.90;;;;;;5029606;28;20057;-41
2023/07/27 10:12:11;;;;;;;2.17;1.55;;;;;;;;;;5029460;28;20133;-36
2023/07/27 10:14:39;;;;;;;2.10;1.50;;;21.50;77.70;;;;;;5029607;28;20545;-40
2023/07/27 10:17:07;;;;;;;2.08;1.35;;;21.60;62.10;;;;;;5029950;28;20049;-37
2023/07/27 10:19:41;;;;;;;1.60;1.40;;;21.60;62.10;;;;;;5029597;28;20128;-36
2023/07/27 10:22:08;;;;;;;1.42;1.27;;;21.30;69.20;;;;;;5029436;28;20053;-39
2023/07/27 10:24:48;;;;;;;1.65;1.33;;;21.80;62.40;;;;;;5029444;28;20050;-40
2023/07/27 10:27:15;;;;;;;1.90;1.30;;;21.90;78.40;;;;;;5029676;28;20132;-40
2023/07/27 10:29:44;;;;;;;1.30;1.20;;;21.50;62.20;;;;;;5029495;28;20128;-39
2023/07/27 10:32:11;;;;;;;2.00;1.40;;;;;;;;;;5027448;28;20137;-38
2023/07/27 10:34:39;;;;;;;1.73;1.40;;;21.50;62.30;;;;;;5014106;28;20076;-36
2023/07/27 10:37:06;;;;;;;2.63;1.38;;;21.40;78.00;;;;;;5028880;28;20068;-33
2023/07/27 10:39:33;;;;;;;2.33;1.20;;;21.70;73.40;;;;;;5021620;28;20138;-34
2023/07/27 10:42:08;;;;;;;2.17;1.55;;;21.20;74.50;;;;;;5018369;28;20682;-34
2023/07/27 10:44:41;;;;;;;;;;;21.40;62.80;;;;;;5019418;28;20061;-33
2023/07/27 10:47:08;;;;;;;1.90;1.20;;;21.20;78.70;;;;;;5017748;28;19925;-33
2023/07/27 10:49:38;;;;;;;4.63;1.50;;;21.80;66.30;;;;;;5016158;28;20050;-40
2023/07/27 10:52:05;;;;;;;2.95;1.33;;;21.70;74.30;;;;;;5019787;28;20733;-38
2023/07/27 10:54:32;;;;;;;2.10;1.23;;;21.50;71.60;;;;;;5029337;28;20053;-40
2023/07/27 10:56:59;;;;;;;1.48;1.25;;;;;;;;;;5023872;28;20120;-37
2023/07/27 10:59:27;;;;;;;2.08;1.20;;;21.40;78.80;;;;;;5019769;28;20141;-41
2023/07/27 11:01:54;;;;;;;2.47;1.30;;;21.00;78.70;;;;;;5016789;28;20052;-39
2023/07/27 11:04:21;;;;;;;1.33;1.20;;;;;;;;;;5018907;28;20077;-35
2023/07/27 11:06:48;;;;;;;2.38;1.40;;;21.20;78.80;;;;;;5018650;28;20045;-40
2023/07/27 11:09:16;;;;;;;1.85;1.20;;;21.20;79.30;;;;;;5018574;28;20125;-40
2023/07/27 11:11:43;;;;;;;1.73;1.30;;;21.10;78.50;;;;;;5017710;28;20049;-38
2023/07/27 11:14:10;;;;;;;2.67;1.23;;;21.20;66.60;;;;;;5017140;28;20559;-38
2023/07/27 11:16:38;;;;;;;3.08;1.38;;;21.20;62.90;;;;;;5018874;28;20498;-39
2023/07/27 11:19:06;;;;;;;2.55;1.30;;;20.30;78.90;;;;;;5019681;28;20114;-38
2023/07/27 11:21:33;;;;;;;3.30;1.20;;;21.70;65.40;;;;;;5014339;28;20056;-40
2023/07/27 11:24:01;;;;;;;1.92;1.10;;;;;;;;;;5020231;28;20128;-37
2023/07/27 11:26:28;;;;;;;2.53;1.20;;;21.10;75.20;;;;;;5027838;28;20405;-38
2023/07/27 11:28:55;;;;;;;1.50;1.25;;;21.00;79.00;;;;;;5027488;28;20085;-38
2023/07/27 11:31:22;;;;;;;1.20;1.10;;;;;;;;;;5018764;28;20056;-40
2023/07/27 11:33:50;;;;;;;1.60;1.13;;;21.30;79.00;;;;;;5016243;28;20042;-39
2023/07/27 11:36:17;;;;;;;2.67;1.30;;;21.30;78.90;;;;;;5013824;28;20095;-38
2023/07/27 11:38:44;;;;;;;2.38;1.30;;;;;;;;;;5016124;28;20487;-34
2023/07/27 11:41:11;;;;;;;1.75;1.27;;;20.90;78.80;;;;;;5025896;28;20148;-41
2023/07/27 11:43:38;;;;;;;1.65;1.25;;;20.90;67.50;;;;;;5028429;28;20049;-41
2023/07/27 11:46:05;;;;;;;1.60;1.40;;;21.40;78.70;;;;;;5019418;28;20042;-40
2023/07/27 11:48:33;;;;;;;2.10;1.20;;;21.70;79.30;;;;;;5028717;28;20137;-37
2023/07/27 11:51:02;;;;;;;2.55;1.10;;;21.40;79.20;;;;;;5028404;28;20081;-41
2023/07/27 11:53:29;;;;;;;1.70;1.30;;;;;;;;;;5028739;28;20498;-37
2023/07/27 11:55:56;;;;;;;1.33;1.10;;;;;;;;;;5032144;28;20124;-40
2023/07/27 11:58:26;;;;;;;1.60;1.17;;;21.90;67.90;;;;;;5031194;28;20403;-39
2023/07/27 12:00:53;;;;;;;2.17;1.20;;;;;;;;;;5031883;28;20226;-37
2023/07/27 12:03:20;;;;;;;1.13;1.02;;;21.00;79.40;;;;;;5030629;28;20510;-40
2023/07/27 12:05:47;;;;;;;1.70;1.10;;;;;;;;;;5019424;28;20042;-39
2023/07/27 12:08:18;;;;;;;1.48;1.20;;;20.80;79.20;;;;;;5019650;28;20140;-39
2023/07/27 12:10:51;;;;;;;2.58;1.10;;;20.70;63.30;;;;;;5023164;28;20051;-39
2023/07/27 12:13:19;;;;;;;1.75;1.17;;;20.20;78.70;;;;;;5022351;28;20128;-40
2023/07/27 12:15:46;;;;;;;1.67;1.10;;;20.60;79.90;;;;;;5011758;28;20148;-39
2023/07/27 12:18:13;;;;;;;2.42;1.15;;;21.20;79.90;;;;;;5011150;28;20128;-41
2023/07/27 12:20:40;;;;;;;1.10;1.00;;;20.90;68.40;;;;;;5017498;28;20152;-39
2023/07/27 12:23:06;;;;;;;1.20;1.10;;;21.50;79.70;;;;;;5020466;28;20129;-41
2023/07/27 12:25:34;;;;;;;1.10;1.00;;;20.80;80.20;;;;;;5019573;28;20425;-39
2023/07/27 12:28:02;;;;;;;1.50;1.10;;;20.90;80.30;;;;;;5015939;28;20052;-41
2023/07/27 12:30:29;;;;;;;1.98;1.20;;;;;;;;;;5010643;28;20057;-40
2023/07/27 12:32:56;;;;;;;1.30;1.00;;;;;;;;;;5028350;28;20136;-37
2023/07/27 12:35:23;;;;;;;1.15;1.02;;;;;;;;;;5030135;28;20124;-40
2023/07/27 12:37:50;;;;;;;2.88;1.30;;;;;;;;;;5029656;28;20125;-38
2023/07/27 12:40:18;;;;;;;1.58;1.10;;;21.40;79.70;;;;;;5029820;28;20133;-38
2023/07/27 12:42:46;;;;;;;1.42;1.10;;;21.00;63.90;;;;;;5029346;28;20637;-38
2023/07/27 12:45:13;;;;;;;1.27;1.10;;;20.80;80.00;;;;;;5030967;28;20050;-39
2023/07/27 12:47:42;;;;;;;1.10;1.00;;;19.90;79.60;;;;;;5031042;28;20041;-39
2023/07/27 12:50:10;;;;;;;1.25;1.15;;;21.50;79.90;;;;;;5031240;28;20045;-38
2023/07/27 12:52:38;;;;;;;2.90;1.20;;;;;;;;;;5014546;28;20475;-36
2023/07/27 12:55:05;;;;;;;2.15;1.00;;;20.90;63.90;;;;;;5011213;28;20053;-38
2023/07/27 12:57:32;;;;;;;3.28;0.98;;;20.70;79.60;;;;;;5011253;28;20046;-39
2023/07/27 13:00:00;;;;;;;1.33;0.95;;;20.90;63.90;;;;;;5011246;28;20057;-41
2023/07/27 13:02:26;;;;;;;2.53;1.10;;;22.10;80.30;;;;;;5011042;28;20133;-40
2023/07/27 13:04:53;;;;;;;2.20;1.13;;;;;;;;;;5015551;28;20046;-39
2023/07/27 13:07:20;;;;;;;2.30;1.55;;;21.10;78.40;;;;;;5020840;28;20041;-39
2023/07/27 13:09:47;;;;;;;2.17;1.17;;;;;;;;;;5018635;28;20125;-37